Flight Track Log - Related Links

Times and Time Zones

All times are in EDT time to prevent confusion due to time zone crossing. See the FDX1254 flight status page for this flight to view local times or setup timezone preferences in your user account.

Time Position Orientation Groundspeed Altitude Reporting Facility
EDT Latitude Longitude Course Direction KTS MPH feet Rate Location/Type
Thu 11:47:19 PM 40.6950 -85.3910 220° Southwest 287 330 9,400  Level FlightAware ADS-B
Thu 11:48:01 PM 40.6090 -85.5390 233° Southwest 406 467 15,500 5,704 Climbing FlightAware ADS-B
Thu 11:48:40 PM 40.5570 -85.6030 223° Southwest 420 483 17,100 2,375 Climbing FlightAware ADS-B
Thu 11:49:37 PM 40.4660 -85.6990 219° Southwest 442 509 19,300 2,289 Climbing FlightAware ADS-B
Thu 11:50:17 PM 40.4000 -85.7670 218° Southwest 453 521 20,800 2,163 Climbing FlightAware ADS-B
Thu 11:51:03 PM 40.3220 -85.8480 218° Southwest 467 537 22,400 2,114 Climbing FlightAware ADS-B
Thu 11:51:45 PM 40.2510 -85.9210 218° Southwest 470 541 23,900 2,250 Climbing FlightAware ADS-B
Thu 11:52:23 PM 40.1860 -85.9880 218° Southwest 471 542 25,400 1,862 Climbing FlightAware ADS-B
Thu 11:53:12 PM 40.1010 -86.0750 218° Southwest 484 557 26,600 1,500 Climbing FlightAware ADS-B
Thu 11:53:51 PM 40.0310 -86.1460 218° Southwest 492 566 27,600 1,630 Climbing FlightAware ADS-B
Thu 11:54:33 PM 39.9550 -86.2230 218° Southwest 499 574 28,800 1,786 Climbing FlightAware ADS-B
Thu 11:55:15 PM 39.8790 -86.3010 218° Southwest 503 579 30,100 2,049 Climbing FlightAware ADS-B
Thu 11:55:55 PM 39.8030 -86.3740 216° Southwest 509 586 31,600 1,310 Climbing FlightAware ADS-B
Thu 11:56:42 PM 39.7080 -86.4490 211° Southwest 513 590 32,000 276 Climbing FlightAware ADS-B
Thu 11:57:22 PM 39.6250 -86.5110 210° Southwest 513 590 32,000  Level FlightAware ADS-B
Thu 11:58:04 PM 39.5400 -86.5760 211° Southwest 511 588 32,000 429 Level FlightAware ADS-B
Thu 11:58:46 PM 39.4530 -86.6400 210° Southwest 507 583 32,600 1,463 Climbing FlightAware ADS-B
Thu 11:59:26 PM 39.3710 -86.7020 210° Southwest 503 579 34,000 1,952 Climbing FlightAware ADS-B
Fri 12:00:09 AM 39.2870 -86.7660 211° Southwest 504 580 35,300 1,416 Climbing FlightAware ADS-B
Fri 12:00:55 AM 39.2010 -86.8290 210° Southwest 499 574 36,100 2,025 Climbing FlightAware ADS-B
Fri 12:01:29 AM 39.1290 -86.8850 211° Southwest 478 550 38,000 1,390 Climbing FlightAware ADS-B
Fri 12:02:17 AM 39.0370 -86.9520 210° Southwest 484 557 38,000  Level FlightAware ADS-B
Fri 12:02:55 AM 38.9650 -87.0060 210° Southwest 485 558 38,000  Level FlightAware ADS-B
Fri 12:03:40 AM 38.8750 -87.0720 210° Southwest 489 563 38,000  Level FlightAware ADS-B
Fri 12:04:18 AM 38.8010 -87.1270 210° Southwest 489 563 38,000  Level FlightAware ADS-B
Fri 12:05:04 AM 38.7100 -87.1940 210° Southwest 491 565 38,000  Level FlightAware ADS-B
Fri 12:05:42 AM 38.6580 -87.2330 210° Southwest 491 565 38,000 -90 Level FlightAware ADS-B
Fri 12:08:23 AM 38.5390 -87.3190 209° Southwest 484 557 37,700 -600 Descending FlightAware ADS-B
Fri 12:09:02 AM 38.2460 -87.5330 210° Southwest 480 552 36,000 -1,244 Descending FlightAware ADS-B
Fri 12:09:45 AM 38.1610 -87.5950 210° Southwest 478 550 36,000  Level FlightAware ADS-B
Fri 12:10:25 AM 38.0840 -87.6500 209° Southwest 478 550 36,000  Level FlightAware ADS-B
Fri 12:11:30 AM 37.9600 -87.7390 210° Southwest 474 545 36,000  Level FlightAware ADS-B
Fri 12:12:16 AM 37.8860 -87.8210 221° Southwest 455 524 36,000  Level FlightAware ADS-B
Fri 12:12:56 AM 37.8310 -87.9020 229° Southwest 454 522 36,000  Level FlightAware ADS-B
Fri 12:13:38 AM 37.7730 -87.9860 229° Southwest 455 524 36,000  Level FlightAware ADS-B
Fri 12:14:21 AM 37.7140 -88.0720 229° Southwest 453 521 36,000  Level FlightAware ADS-B
Fri 12:15:00 AM 37.6600 -88.1490 228° Southwest 452 520 36,000  Level FlightAware ADS-B
Fri 12:15:40 AM 37.6050 -88.2280 229° Southwest 450 518 36,000  Level FlightAware ADS-B
Fri 12:16:27 AM 37.5400 -88.3230 229° Southwest 447 514 36,000  Level FlightAware ADS-B
Fri 12:17:10 AM 37.4820 -88.4050 228° Southwest 446 513 36,000 -361 Level FlightAware ADS-B
Fri 12:17:50 AM 37.4270 -88.4840 229° Southwest 444 511 35,500 -714 Descending FlightAware ADS-B
Fri 12:18:34 AM 37.3670 -88.5670 228° Southwest 444 511 35,000 -306 Descending FlightAware ADS-B
Fri 12:19:28 AM 37.3020 -88.6580 228° Southwest 445 512 35,000  Level FlightAware ADS-B
Fri 12:20:05 AM 37.2590 -88.7190 228° Southwest 445 512 35,000  Level FlightAware ADS-B
Fri 12:20:52 AM 37.2040 -88.7960 228° Southwest 445 512 35,000  Level FlightAware ADS-B
Fri 12:21:29 AM 37.1610 -88.8560 228° Southwest 445 512 35,000  Level FlightAware ADS-B
Fri 12:22:17 AM 37.1050 -88.9340 228° Southwest 445 512 35,000  Level FlightAware ADS-B
Fri 12:22:51 AM 37.0650 -88.9900 228° Southwest 445 512 35,000  Level FlightAware ADS-B
Fri 12:23:39 AM 37.0090 -89.0680 228° Southwest 445 512 35,000  Level FlightAware ADS-B
Fri 12:24:16 AM 36.9650 -89.1280 227° Southwest 445 512 35,000  Level FlightAware ADS-B
Fri 12:25:02 AM 36.9110 -89.2030 228° Southwest 445 512 35,000  Level FlightAware ADS-B
Fri 12:25:45 AM 36.8610 -89.2730 228° Southwest 445 512 35,000  Level FlightAware ADS-B
Fri 12:26:21 AM 36.8190 -89.3310 228° Southwest 445 512 35,000  Level FlightAware ADS-B
Fri 12:27:11 AM 36.7600 -89.4130 228° Southwest 445 512 35,000  Level FlightAware ADS-B
Fri 12:27:48 AM 36.7170 -89.4730 228° Southwest 445 512 35,000  Level FlightAware ADS-B
Fri 12:28:36 AM 36.6610 -89.5500 228° Southwest 445 512 35,000 -7,761 Level FlightAware ADS-B
Fri 12:29:20 AM 36.3986 -89.6658 228° Southwest 462 532 23,100 -8,250 Descending Memphis Center
Fri 12:30:20 AM 36.2756 -89.6928 190° South 455 524 20,700 -2,380 Descending Memphis Center
Fri 12:31:21 AM 36.1569 -89.7219 191° South 449 517 18,300 -2,450 Descending Memphis Center
Fri 12:32:20 AM 36.0425 -89.7461 190° South 438 504 15,800 -2,471 Descending Memphis Center
Fri 12:33:20 AM 35.9319 -89.7725 191° South 422 486 13,400 -2,380 Descending Memphis Center
Fri 12:34:21 AM 35.8258 -89.7964 190° South 409 471 11,000 -1,650 Descending Memphis Center
Fri 12:35:20 AM 35.7300 -89.8147 189° South 380 437 10,100 -958 Descending Memphis Center
Fri 12:36:20 AM 35.6486 -89.8256 186° South 337 388 9,100 -1,100 Descending Memphis Center
Fri 12:37:20 AM 35.5650 -89.7906 161° South 296 341 7,900 -1,050 Descending Memphis Center
Fri 12:38:20 AM 35.4836 -89.7578 162° South 301 346 7,000 -850 Descending Memphis Center
Fri 12:39:20 AM 35.4083 -89.7253 161° South 295 339 6,200 -800 Descending Memphis Center
Fri 12:40:20 AM 35.3394 -89.7003 164° South 270 311 5,400 -750 Descending Memphis Center
Fri 12:41:20 AM 35.2744 -89.6781 164° South 246 283 4,700 -700 Descending Memphis Center
Fri 12:42:20 AM 35.2161 -89.6581 164° South 220 253 4,000 -350 Descending Memphis Center
Fri 12:43:20 AM 35.1617 -89.6561 178° South 197 227 4,000 -350 Level Memphis Center
Fri 12:44:20 AM 35.1097 -89.6742 196° South 197 227 3,300 -500 Descending Memphis Center
Fri 12:45:20 AM 35.0597 -89.6950 199° South 202 232 3,000 -150 Descending Memphis Center
Fri 12:46:20 AM 35.0517 -89.7636 262° West 177 204 3,000 -350 Level Memphis Center
Fri 12:47:20 AM 35.0564 -89.8319 275° West 190 219 2,300 -793 Descending Memphis Center
Fri 12:48:21 AM 35.0500 -89.8833 261° West 191 220 1,400 -893 Descending KMEM
Fri 12:49:21 AM 35.0500 -89.9333 270° West 131 151 500 -900 Descending KMEM
Fri 12:51:00 AM 35.0333 -89.9667 265° West  Level FlightAware Approximate
Fri 12:58:00 AM 35.0424 -89.9767 265° West  Level Estimated
Fri 12:59:00 AM 35.0424 -89.9767 265° West  Level Estimated
Fri 01:00:00 AM 35.0424 -89.9767 265° West  Level Estimated
Fri 01:01:00 AM 35.0424 -89.9767 265° West  Level Estimated
Fri 01:02:00 AM 35.0424 -89.9767 265° West  Level Estimated
Fri 01:03:00 AM 35.0424 -89.9767 265° West  Level Estimated
Fri 01:04:00 AM 35.0424 -89.9767 265° West  Level Estimated
Fri 01:05:00 AM 35.0424 -89.9767 265° West  Level Estimated
Fri 01:06:00 AM 35.0424 -89.9767 265° West  Level Estimated

Login

Don't have an account? Register now (free) for customized features, flight alerts, and more!